KSLG

Details ICAO KSLG
Name SMITH FLD
Region United States
Timezone America/Chicago (UTC-6.0)
Plans Departing 0
Arriving 5
Stats Elevation 1,193 ft / 364 m (AMSL)
Location 36.191854° -94.489989°
Runways 1
Magnetic Variation 1.724° E
Sunrise 2017-12-14 13:22:41 UTC / 2017-12-14 07:22:41 Local
Sunset 2017-12-14 23:05:39 UTC / 2017-12-14 17:05:39 Local
Advertisement - Login to hide

Runways

ID Width Length Bearing (true) Bearing (mag) Surface Threshold Offset Overrun Length
18 75 ft / 23 m 5,012 ft / 1,528 m 185.30° 183.58° Asphalt 0 ft / 0 m 0 ft / 0 m
36 75 ft / 23 m 5,012 ft / 1,528 m 5.30° 3.58° Asphalt 0 ft / 0 m 0 ft / 0 m

Map

Weather


0- 5 10 15 20 25 30 35+ Temperature / ° C

Clouds and Precipitation
Forecast for 2017-12-15 00:00 UTC. Updated an hour ago

Ground ~20,000 ft ~40,000 ft Winds

METAR

KSLG 141956Z AUTO 35009KT 10SM OVC040 06/M03 A3010 RMK AO2 SLP197 T00561033

TAF

Not found

Frequencies

Recorded 118.37 MHz AWOS 3
Approach 121.00 MHz RAZORBACK APP/DEP
Unicom 122.80 MHz CTAF/UNICOM
Warning: Do not use this data for real-world aviation or navigation. No guarantee of current accuracy is given.